Latest Weather Observations for Brisbane Airport

IDQ60801

Issued at 4:32 pm EST Thursday 24 August 2017 (issued every 30 minutes, with the page automatically refreshed every 10 minutes)

About weather observations | Map of weather stations | Latest weather observations for QLD | Other Formats
Station Details ID: 040842 Name: BRISBANE AERO Lat: -27.39 Lon: 153.13 Height: 4.51 m
Data from the previous 72 hours. | See also: Recent months at Brisbane Airport
Date/Time
EST
Temp
°C
App
Temp
°C
Dew
Point
°C
Rel
Hum
%
Delta-T
°C
Wind Press
QNH
hPa
Press
MSL
hPa
Rain since
9am
mm
Dir  Spd
km/h
Gust
km/h
Spd
kts
Gust
kts
24/04:13pm 20.1 17.9 16.8 81 2.0 N 24 32 13 17 1013.1 1013.1 3.0
24/04:00pm 20.1 18.2 16.8 81 2.0 NNE 22 28 12 15 1012.5 1012.5 3.0
24/03:30pm 20.8 17.8 15.8 73 3.0 NNE 26 33 14 18 1012.1 1012.1 3.0
24/03:00pm 22.5 19.1 15.9 66 4.0 N 28 35 15 19 1012.0 1012.0 3.0
24/02:30pm 22.4 19.0 15.7 66 4.0 NNE 28 33 15 18 1012.6 1012.6 3.0
24/02:00pm 22.2 19.4 16.4 69 3.5 NNE 26 30 14 16 1013.1 1013.1 3.0
24/01:30pm 22.3 20.5 16.0 67 3.8 NNE 20 26 11 14 1013.6 1013.6 3.0
24/01:00pm 21.8 20.6 16.2 70 3.4 NNE 17 20 9 11 1014.3 1014.3 2.8
24/12:30pm 20.8 20.4 16.1 74 2.8 NNE 13 17 7 9 1014.9 1014.9 2.8
24/12:00pm 20.7 21.1 16.4 76 2.6 N 9 11 5 6 1015.6 1015.6 2.8
24/11:30am 18.7 18.5 15.8 83 1.7 N 11 13 6 7 1016.0 1016.0 2.8
24/11:00am 18.8 17.9 15.8 83 1.8 NNW 15 28 8 15 1016.6 1016.6 2.0
24/10:30am 18.6 16.9 15.7 83 1.7 NNW 19 30 10 16 1017.1 1017.1 1.4
24/10:00am 19.2 17.5 14.7 75 2.6 NNW 17 28 9 15 1017.1 1017.1 0.0
24/09:30am 20.3 18.9 15.6 74 2.8 N 17 26 9 14 1017.0 1017.0 0.0
24/09:00am 19.9 18.2 15.7 77 2.5 N 19 26 10 14 1017.1 1017.1 0.0
24/08:30am 19.3 17.1 15.9 81 2.0 N 22 32 12 17 1017.3 1017.3 0.0
24/08:00am 19.1 16.6 16.1 83 1.8 N 24 30 13 16 1017.1 1017.1 0.0
24/07:30am 18.8 17.4 16.5 86 1.4 N 19 26 10 14 1017.0 1017.0 0.0
24/07:00am 18.3 16.6 15.8 85 1.5 N 19 22 10 12 1017.0 1017.0 0.0
24/06:30am 18.0 15.4 15.8 87 1.3 N 24 30 13 16 1016.6 1016.6 0.0
24/06:00am 17.2 15.3 15.7 91 0.9 N 20 26 11 14 1016.2 1016.2 0.0
24/05:30am 15.5 13.3 14.4 93 0.6 N 19 26 10 14 1016.2 1016.2 0.0
24/05:00am 16.5 15.9 14.6 88 1.1 NNW 11 13 6 7 1016.0 1016.0 0.0
24/04:30am 17.4 15.8 15.0 86 1.4 NNW 17 20 9 11 1015.8 1015.8 0.0
24/04:00am 17.7 15.3 15.3 86 1.4 N 22 28 12 15 1015.6 1015.6 0.0
24/03:30am 18.0 16.0 15.4 85 1.5 N 20 28 11 15 1015.5 1015.5 0.0
24/03:00am 18.3 16.4 15.8 85 1.5 N 20 28 11 15 1015.7 1015.7 0.0
24/02:30am 18.1 16.4 15.7 86 1.4 N 19 26 10 14 1016.0 1016.0 0.0
24/02:00am 17.5 15.9 14.9 85 1.5 N 17 19 9 10 1016.1 1016.1 0.0
24/01:30am 16.4 15.9 14.8 90 0.9 NNE 11 11 6 6 1016.5 1016.5 0.0
24/01:00am 16.6 17.1 14.9 90 1.0 NNE 6 9 3 5 1016.8 1016.8 0.0
24/12:30am 17.4 17.9 15.0 86 1.4 WNW 6 7 3 4 1017.2 1017.2 0.0
24/12:00am 17.5 16.8 15.3 87 1.3 NNW 13 15 7 8 1017.3 1017.3 0.0
 
Date/Time
EST
Temp
°C
App
Temp
°C
Dew
Point
°C
Rel
Hum
%
Delta-T
°C
Wind Press
QNH
hPa
Press
MSL
hPa
Rain since
9am
mm
Dir  Spd
km/h
Gust
km/h
Spd
kts
Gust
kts
23/11:30pm 16.9 16.1 15.0 88 1.1 N 13 17 7 9 1017.3 1017.3 0.0
23/11:00pm 17.5 16.8 15.3 87 1.3 N 13 17 7 9 1017.2 1017.2 0.0
23/10:30pm 18.5 17.8 16.5 88 1.2 N 15 19 8 10 1017.2 1017.2 0.0
23/10:00pm 19.4 18.5 16.9 85 1.5 NNE 17 20 9 11 1017.1 1017.1 0.0
23/09:30pm 19.5 18.1 18.0 91 0.9 NNE 22 39 12 21 1017.2 1017.2 0.0
23/09:00pm 19.9 19.1 18.1 89 1.1 NNE 19 22 10 12 1017.3 1017.3 0.0
23/08:30pm 18.2 19.0 17.2 94 0.6 NE 9 9 5 5 1017.5 1017.5 0.0
23/08:00pm 18.4 19.6 17.4 94 0.6 NE 7 9 4 5 1017.5 1017.5 0.0
23/07:30pm 17.5 17.7 16.7 95 0.5 NNE 11 13 6 7 1017.4 1017.4 0.0
23/07:00pm 18.1 19.3 17.3 95 0.5 N 7 9 4 5 1017.5 1017.5 0.0
23/06:30pm 18.0 19.0 16.8 93 0.7 N 7 9 4 5 1017.3 1017.3 0.0
23/06:00pm 18.2 18.8 16.9 92 0.8 NNE 9 11 5 6 1017.2 1017.2 0.0
23/05:30pm 19.3 18.8 16.8 85 1.5 N 15 19 8 10 1017.3 1017.3 0.0
23/05:00pm 20.1 19.6 16.8 81 2.0 N 15 19 8 10 1017.0 1017.0 0.0
23/04:30pm 20.8 19.7 16.3 75 2.7 NNE 17 22 9 12 1016.6 1016.6 0.0
23/04:00pm 21.1 20.7 16.3 74 2.9 NNE 13 17 7 9 1016.5 1016.5 0.0
23/03:30pm 22.9 20.7 15.0 61 4.7 NNE 20 28 11 15 1016.4 1016.4 0.0
23/03:00pm 23.3 20.7 14.9 59 5.0 NNE 22 30 12 16 1016.6 1016.6 0.0
23/02:30pm 22.6 19.2 14.8 61 4.6 NE 26 30 14 16 1016.7 1016.7 0.0
23/02:00pm 23.4 21.2 14.8 58 5.1 NE 20 30 11 16 1016.9 1016.9 0.0
23/01:30pm 24.0 22.3 14.7 56 5.5 NE 17 22 9 12 1017.1 1017.1 0.0
23/01:00pm 25.2 24.0 14.0 49 6.6 WNW 13 26 7 14 1017.6 1017.6 0.0
23/12:30pm 23.9 22.6 13.8 53 5.9 W 13 24 7 13 1018.4 1018.3 0.0
23/12:00pm 23.4 21.8 14.0 55 5.5 WNW 15 22 8 12 1018.9 1018.8 0.0
23/11:30am 23.0 22.0 13.5 55 5.5 WSW 11 17 6 9 1019.4 1019.3 0.0
23/11:00am 22.2 20.4 13.3 57 5.1 W 15 24 8 13 1020.0 1019.9 0.0
23/10:30am 22.1 20.7 13.4 57 5.0 W 13 22 7 12 1020.4 1020.3 0.0
23/10:00am 20.3 20.2 13.3 64 4.0 W 6 13 3 7 1020.8 1020.7 0.0
23/09:30am 20.2 19.6 13.5 65 3.8 NW 9 17 5 9 1020.9 1020.8 0.0
23/09:00am 19.1 18.7 15.2 78 2.3 WSW 11 13 6 7 1020.9 1020.8 0.2
23/08:30am 17.9 17.2 15.5 86 1.4 SW 13 17 7 9 1021.0 1020.9 0.2
23/08:00am 16.6 17.0 15.2 91 0.8 WSW 7 9 4 5 1021.0 1020.9 0.2
23/07:30am 15.6 15.7 14.5 93 0.6 WSW 7 11 4 6 1020.6 1020.5 0.2
23/07:00am 14.6 14.6 14.1 97 0.3 W 7 9 4 5 1020.3 1020.2 0.2
23/06:30am 13.5 14.5 13.3 99 0.1 CALM 0 0 0 0 1020.0 1019.9 0.2
23/06:00am 12.9 12.4 12.7 99 0.1 SW 7 9 4 5 1019.9 1019.8 0.2
23/05:30am 13.1 12.7 12.9 99 0.1 SW 7 9 4 5 1019.6 1019.5 0.2
23/05:00am 13.5 14.6 13.5 100 0.0 CALM 0 0 0 0 1019.2 1019.1 0.2
23/04:43am 12.5 13.2 12.1 97 0.2 CALM 0 0 0 0 1019.0 1018.9 0.2
23/04:30am 13.7 14.7 13.3 97 0.2 CALM 0 0 0 0 1018.9 1018.8 0.2
23/04:00am 13.9 13.7 13.7 99 0.1 WSW 7 9 4 5 1018.8 1018.7 0.2
23/03:56am 14.1 14.1 14.1 100 0.0 WSW 7 7 4 4 1018.8 1018.7 0.2
23/03:30am 14.4 14.0 14.2 99 0.1 SW 9 13 5 7 1018.7 1018.6 0.2
23/03:00am 14.6 14.2 14.2 97 0.2 WSW 9 11 5 6 1018.6 1018.5 0.2
23/02:30am 14.5 14.2 14.3 99 0.1 WNW 9 11 5 6 1018.5 1018.4 0.2
23/02:00am 14.4 14.0 14.2 99 0.1 W 9 11 5 6 1018.7 1018.6 0.2
23/01:30am 14.8 14.9 14.4 97 0.2 NW 7 9 4 5 1018.7 1018.6 0.2
23/01:00am 15.3 16.5 14.8 97 0.3 W 2 9 1 5 1018.8 1018.7 0.2
23/12:40am 15.2 15.1 14.9 98 0.2 W 9 11 5 6 1018.8 1018.7 0.2
23/12:30am 15.7 15.7 15.2 97 0.3 NW 9 13 5 7 1018.9 1018.8 0.2
23/12:00am 16.1 15.7 15.2 94 0.5 N 11 28 6 15 1018.8 1018.7 0.2
 
Date/Time
EST
Temp
°C
App
Temp
°C
Dew
Point
°C
Rel
Hum
%
Delta-T
°C
Wind Press
QNH
hPa
Press
MSL
hPa
Rain since
9am
mm
Dir  Spd
km/h
Gust
km/h
Spd
kts
Gust
kts
22/11:30pm 16.7 17.6 16.2 97 0.3 NNW 6 9 3 5 1019.1 1019.0 0.2
22/11:00pm 16.9 16.5 16.1 95 0.5 N 13 15 7 8 1019.0 1018.9 0.2
22/10:30pm 17.1 17.2 16.4 96 0.4 NNW 11 15 6 8 1018.9 1018.8 0.2
22/10:00pm 17.5 18.1 16.7 95 0.5 N 9 11 5 6 1018.8 1018.7 0.2
22/09:30pm 18.1 18.0 16.9 93 0.7 N 13 17 7 9 1018.8 1018.7 0.2
22/09:00pm 18.5 18.8 17.0 91 0.9 N 11 15 6 8 1018.7 1018.6 0.2
22/08:30pm 18.7 18.2 16.9 89 1.1 N 15 19 8 10 1018.7 1018.6 0.2
22/08:00pm 17.7 17.4 16.4 92 0.8 N 13 13 7 7 1018.5 1018.4 0.2
22/07:30pm 18.8 18.5 16.5 86 1.4 N 13 22 7 12 1018.3 1018.2 0.2
22/07:00pm 17.8 17.4 16.1 90 1.0 N 13 17 7 9 1018.1 1018.0 0.2
22/06:30pm 18.7 18.4 16.5 87 1.3 N 13 28 7 15 1017.7 1017.7 0.2
22/06:00pm 19.2 17.6 16.4 84 1.7 N 20 28 11 15 1017.3 1017.3 0.2
22/05:30pm 19.4 17.8 16.4 83 1.8 N 20 30 11 16 1017.0 1017.0 0.2
22/05:00pm 19.8 18.0 15.9 78 2.3 NNE 20 26 11 14 1016.6 1016.6 0.2
22/04:30pm 20.6 18.8 16.1 75 2.7 NNE 20 28 11 15 1016.4 1016.4 0.2
22/04:00pm 21.4 19.2 15.9 71 3.3 NNE 22 30 12 16 1016.1 1016.1 0.2
22/03:30pm 21.2 17.7 15.5 70 3.4 NNE 28 33 15 18 1015.9 1015.9 0.2
22/03:00pm 22.1 19.0 15.6 66 3.9 NNE 26 33 14 18 1015.9 1015.9 0.2
22/02:30pm 22.6 19.3 15.0 62 4.5 NNE 26 32 14 17 1016.1 1016.1 0.2
22/02:00pm 22.5 19.1 14.7 61 4.6 NNE 26 35 14 19 1016.3 1016.3 0.2
22/01:30pm 22.8 20.0 15.4 63 4.4 NNE 24 32 13 17 1016.5 1016.5 0.2
22/01:00pm 22.8 19.3 14.5 59 4.9 NNE 26 32 14 17 1016.9 1016.9 0.2
22/12:30pm 23.1 20.6 14.0 56 5.3 NNE 20 26 11 14 1017.3 1017.3 0.2
22/12:00pm 22.0 20.3 13.7 59 4.8 NNE 15 20 8 11 1018.1 1018.0 0.2
22/11:30am 22.3 20.7 13.9 59 4.9 NNE 15 22 8 12 1018.7 1018.6 0.2
22/11:00am 21.7 19.6 13.7 60 4.6 N 17 20 9 11 1019.4 1019.3 0.2
22/10:30am 20.9 19.2 13.6 63 4.2 NNE 15 19 8 10 1019.7 1019.6 0.2
22/10:00am 20.1 18.6 13.2 64 3.9 NNE 13 17 7 9 1019.9 1019.8 0.0
22/09:30am 19.8 18.2 12.7 63 4.0 N 13 20 7 11 1020.1 1020.0 0.0
22/09:00am 19.8 19.6 13.5 67 3.6 NW 7 13 4 7 1020.3 1020.2 0.6
22/08:30am 18.3 17.7 12.3 68 3.3 NW 7 9 4 5 1020.4 1020.3 0.6
22/08:00am 17.3 18.2 12.8 75 2.5 CALM 0 0 0 0 1020.2 1020.1 0.6
22/07:30am 15.9 17.1 13.9 88 1.1 CALM 0 4 0 2 1019.8 1019.7 0.6
22/07:00am 13.7 14.1 12.6 93 0.6 N 2 9 1 5 1019.5 1019.4 0.6
22/06:30am 12.3 12.0 11.3 94 0.5 NW 4 11 2 6 1019.4 1019.3 0.6
22/06:00am 11.8 12.4 11.8 100 0.0 CALM 0 0 0 0 1018.9 1018.8 0.6
22/05:30am 13.7 13.5 13.0 96 0.4 SSW 6 9 3 5 1019.2 1019.1 0.6
22/05:00am 13.4 14.2 12.5 94 0.5 CALM 0 0 0 0 1019.0 1018.9 0.6
22/04:30am 13.7 14.3 13.0 96 0.4 WNW 2 7 1 4 1018.9 1018.8 0.6
22/04:00am 13.5 13.9 12.6 94 0.5 W 2 7 1 4 1018.7 1018.6 0.6
22/03:30am 13.9 14.1 13.0 94 0.5 N 4 9 2 5 1018.5 1018.4 0.6
22/03:00am 14.3 15.2 13.0 92 0.7 CALM 0 0 0 0 1018.6 1018.5 0.6
22/02:30am 14.6 15.6 13.3 92 0.7 CALM 0 0 0 0 1018.9 1018.8 0.6
22/02:00am 14.6 13.5 13.1 91 0.8 WNW 11 11 6 6 1019.2 1019.1 0.6
22/01:30am 14.0 15.1 13.5 97 0.3 CALM 0 0 0 0 1018.7 1018.6 0.6
22/01:00am 14.3 15.4 13.6 96 0.4 CALM 0 4 0 2 1019.2 1019.1 0.6
22/12:30am 15.2 14.8 14.0 92 0.7 WSW 9 13 5 7 1019.5 1019.4 0.6
22/12:00am 15.4 16.0 13.0 85 1.3 WNW 2 15 1 8 1019.4 1019.3 0.2
 
Date/Time
EST
Temp
°C
App
Temp
°C
Dew
Point
°C
Rel
Hum
%
Delta-T
°C
Wind Press
QNH
hPa
Press
MSL
hPa
Rain since
9am
mm
Dir  Spd
km/h
Gust
km/h
Spd
kts
Gust
kts
21/11:30pm 15.1 14.1 12.3 83 1.5 WSW 9 11 5 6 1019.6 1019.5 0.0
21/11:00pm 15.6 14.7 12.7 83 1.6 WNW 9 13 5 7 1019.7 1019.6 0.0
21/10:30pm 16.0 15.1 12.7 81 1.8 NW 9 13 5 7 1019.2 1019.1 0.0
21/10:00pm 15.1 14.9 12.9 87 1.2 NNW 6 15 3 8 1019.4 1019.3 0.0
21/09:30pm 15.7 15.5 13.6 87 1.2 NNW 7 9 4 5 1019.3 1019.2 0.0
21/09:00pm 15.9 15.3 13.6 86 1.3 NNW 9 9 5 5 1019.5 1019.4 0.0
21/08:30pm 16.5 15.0 13.1 80 1.9 N 13 15 7 8 1019.5 1019.4 0.0
21/08:00pm 16.3 14.5 13.3 82 1.7 NNE 15 17 8 9 1019.2 1019.1 0.0
21/07:30pm 16.5 15.0 13.1 80 1.9 NNE 13 17 7 9 1019.1 1019.0 0.0
21/07:00pm 16.6 15.0 12.8 78 2.1 NNE 13 17 7 9 1019.2 1019.1 0.0
21/06:30pm 17.4 14.9 12.3 72 2.8 N 17 24 9 13 1018.8 1018.7 0.0
21/06:00pm 17.4 14.5 12.3 72 2.8 NNE 19 24 10 13 1018.3 1018.2 0.0
21/05:30pm 17.4 14.5 12.9 75 2.5 NNE 20 26 11 14 1018.1 1018.0 0.0
21/05:00pm 17.5 14.6 12.2 71 2.9 NNE 19 22 10 12 1018.5 1018.4 0.0

Other Formats:

Comma delimited format used in spreadsheet applications
http://www.bom.gov.au/fwo/IDQ60801/IDQ60801.94578.axf

JavaScript Object Notation format (JSON) in row-major order
http://www.bom.gov.au/fwo/IDQ60801/IDQ60801.94578.json